sensor_id;sensor_type;location;lat;lon;timestamp;pressure;altitude;pressure_sealevel;temperature
19282;BMP180;9774;52.034;5.342;2024-03-23T00:52:14;100870.00;;;14.10
19282;BMP180;9774;52.034;5.342;2024-03-23T00:54:40;100873.00;;;14.20
19282;BMP180;9774;52.034;5.342;2024-03-23T00:57:07;100870.00;;;14.10
19282;BMP180;9774;52.034;5.342;2024-03-23T00:59:33;100866.00;;;14.10
19282;BMP180;9774;52.034;5.342;2024-03-23T01:02:00;100856.00;;;14.20
19282;BMP180;9774;52.034;5.342;2024-03-23T01:04:26;100857.00;;;14.10
19282;BMP180;9774;52.034;5.342;2024-03-23T01:06:53;100858.00;;;14.10
19282;BMP180;9774;52.034;5.342;2024-03-23T01:09:21;100862.00;;;14.20
19282;BMP180;9774;52.034;5.342;2024-03-23T01:11:48;100854.00;;;14.20
19282;BMP180;9774;52.034;5.342;2024-03-23T01:14:14;100844.00;;;14.20
19282;BMP180;9774;52.034;5.342;2024-03-23T01:16:41;100845.00;;;14.20
19282;BMP180;9774;52.034;5.342;2024-03-23T01:19:07;100852.00;;;14.20
19282;BMP180;9774;52.034;5.342;2024-03-23T01:21:34;100847.00;;;14.20
19282;BMP180;9774;52.034;5.342;2024-03-23T01:24:01;100836.00;;;14.20
19282;BMP180;9774;52.034;5.342;2024-03-23T01:26:29;100827.00;;;14.20
19282;BMP180;9774;52.034;5.342;2024-03-23T01:28:55;100822.00;;;14.20
19282;BMP180;9774;52.034;5.342;2024-03-23T01:31:22;100817.00;;;14.20
19282;BMP180;9774;52.034;5.342;2024-03-23T01:33:48;100819.00;;;14.20
19282;BMP180;9774;52.034;5.342;2024-03-23T01:36:15;100811.00;;;14.20
19282;BMP180;9774;52.034;5.342;2024-03-23T01:38:42;100811.00;;;14.20
19282;BMP180;9774;52.034;5.342;2024-03-23T01:41:09;100808.00;;;14.20
19282;BMP180;9774;52.034;5.342;2024-03-23T01:43:36;100804.00;;;14.10
19282;BMP180;9774;52.034;5.342;2024-03-23T01:46:03;100796.00;;;14.10
19282;BMP180;9774;52.034;5.342;2024-03-23T01:48:29;100797.00;;;14.10
19282;BMP180;9774;52.034;5.342;2024-03-23T01:50:56;100795.00;;;14.10
19282;BMP180;9774;52.034;5.342;2024-03-23T01:53:23;100803.00;;;14.00
19282;BMP180;9774;52.034;5.342;2024-03-23T01:55:51;100797.00;;;14.00
19282;BMP180;9774;52.034;5.342;2024-03-23T01:58:17;100803.00;;;13.90
19282;BMP180;9774;52.034;5.342;2024-03-23T02:00:46;100795.00;;;13.90
19282;BMP180;9774;52.034;5.342;2024-03-23T02:03:24;100802.00;;;13.70
19282;BMP180;9774;52.034;5.342;2024-03-23T02:05:53;100794.00;;;13.80
19282;BMP180;9774;52.034;5.342;2024-03-23T02:08:22;100789.00;;;13.70
19282;BMP180;9774;52.034;5.342;2024-03-23T02:10:49;100794.00;;;13.70
19282;BMP180;9774;52.034;5.342;2024-03-23T02:13:17;100790.00;;;13.60
19282;BMP180;9774;52.034;5.342;2024-03-23T02:15:46;100791.00;;;13.60
19282;BMP180;9774;52.034;5.342;2024-03-23T02:18:12;100792.00;;;13.50
19282;BMP180;9774;52.034;5.342;2024-03-23T02:20:39;100785.00;;;13.50
19282;BMP180;9774;52.034;5.342;2024-03-23T02:23:13;100789.00;;;13.30
19282;BMP180;9774;52.034;5.342;2024-03-23T02:25:40;100781.00;;;13.40
19282;BMP180;9774;52.034;5.342;2024-03-23T02:28:07;100780.00;;;13.30
19282;BMP180;9774;52.034;5.342;2024-03-23T02:30:34;100780.00;;;13.30
19282;BMP180;9774;52.034;5.342;2024-03-23T02:33:01;100771.00;;;13.20
19282;BMP180;9774;52.034;5.342;2024-03-23T02:35:27;100774.00;;;13.20
19282;BMP180;9774;52.034;5.342;2024-03-23T02:37:55;100773.00;;;13.10
19282;BMP180;9774;52.034;5.342;2024-03-23T02:40:24;100772.00;;;13.10
19282;BMP180;9774;52.034;5.342;2024-03-23T02:42:51;100772.00;;;13.00
19282;BMP180;9774;52.034;5.342;2024-03-23T02:45:17;100773.00;;;13.00
19282;BMP180;9774;52.034;5.342;2024-03-23T02:47:44;100772.00;;;12.90
19282;BMP180;9774;52.034;5.342;2024-03-23T02:50:11;100767.00;;;12.90
19282;BMP180;9774;52.034;5.342;2024-03-23T02:52:38;100775.00;;;12.80
19282;BMP180;9774;52.034;5.342;2024-03-23T02:55:04;100775.00;;;12.80
19282;BMP180;9774;52.034;5.342;2024-03-23T02:57:33;100774.00;;;12.80
19282;BMP180;9774;52.034;5.342;2024-03-23T02:59:59;100765.00;;;12.70
19282;BMP180;9774;52.034;5.342;2024-03-23T03:02:26;100765.00;;;12.70
19282;BMP180;9774;52.034;5.342;2024-03-23T03:04:52;100764.00;;;12.60
19282;BMP180;9774;52.034;5.342;2024-03-23T03:07:19;100774.00;;;12.60
19282;BMP180;9774;52.034;5.342;2024-03-23T03:09:45;100773.00;;;12.60
19282;BMP180;9774;52.034;5.342;2024-03-23T03:12:12;100771.00;;;12.50
19282;BMP180;9774;52.034;5.342;2024-03-23T03:14:40;100771.00;;;12.50
19282;BMP180;9774;52.034;5.342;2024-03-23T03:17:07;100770.00;;;12.50
19282;BMP180;9774;52.034;5.342;2024-03-23T03:19:33;100767.00;;;12.40
19282;BMP180;9774;52.034;5.342;2024-03-23T03:22:00;100764.00;;;12.40
19282;BMP180;9774;52.034;5.342;2024-03-23T03:24:26;100775.00;;;12.40
19282;BMP180;9774;52.034;5.342;2024-03-23T03:26:53;100768.00;;;12.30
19282;BMP180;9774;52.034;5.342;2024-03-23T03:29:19;100768.00;;;12.30
19282;BMP180;9774;52.034;5.342;2024-03-23T03:31:47;100771.00;;;12.20
19282;BMP180;9774;52.034;5.342;2024-03-23T03:34:15;100762.00;;;12.20
19282;BMP180;9774;52.034;5.342;2024-03-23T03:36:42;100763.00;;;12.20
19282;BMP180;9774;52.034;5.342;2024-03-23T03:39:08;100752.00;;;12.10
19282;BMP180;9774;52.034;5.342;2024-03-23T03:41:35;100748.00;;;12.10
19282;BMP180;9774;52.034;5.342;2024-03-23T03:44:03;100739.00;;;12.10
19282;BMP180;9774;52.034;5.342;2024-03-23T03:46:29;100754.00;;;12.00
19282;BMP180;9774;52.034;5.342;2024-03-23T03:48:57;100739.00;;;12.00
19282;BMP180;9774;52.034;5.342;2024-03-23T03:51:23;100743.00;;;12.00
19282;BMP180;9774;52.034;5.342;2024-03-23T03:53:51;100742.00;;;11.90
19282;BMP180;9774;52.034;5.342;2024-03-23T03:56:17;100746.00;;;11.90
19282;BMP180;9774;52.034;5.342;2024-03-23T03:58:44;100740.00;;;11.80
19282;BMP180;9774;52.034;5.342;2024-03-23T04:01:10;100735.00;;;11.80
19282;BMP180;9774;52.034;5.342;2024-03-23T04:03:37;100736.00;;;11.80
19282;BMP180;9774;52.034;5.342;2024-03-23T04:06:06;100743.00;;;11.70
19282;BMP180;9774;52.034;5.342;2024-03-23T04:08:33;100737.00;;;11.70
19282;BMP180;9774;52.034;5.342;2024-03-23T04:11:01;100728.00;;;11.60
19282;BMP180;9774;52.034;5.342;2024-03-23T04:13:27;100732.00;;;11.60
19282;BMP180;9774;52.034;5.342;2024-03-23T04:15:54;100725.00;;;11.60
19282;BMP180;9774;52.034;5.342;2024-03-23T04:18:21;100722.00;;;11.60
19282;BMP180;9774;52.034;5.342;2024-03-23T04:20:49;100722.00;;;11.50
19282;BMP180;9774;52.034;5.342;2024-03-23T04:23:16;100725.00;;;11.50
19282;BMP180;9774;52.034;5.342;2024-03-23T04:25:43;100721.00;;;11.40
19282;BMP180;9774;52.034;5.342;2024-03-23T04:28:10;100721.00;;;11.40
19282;BMP180;9774;52.034;5.342;2024-03-23T04:30:37;100720.00;;;11.40
19282;BMP180;9774;52.034;5.342;2024-03-23T04:33:04;100725.00;;;11.30
19282;BMP180;9774;52.034;5.342;2024-03-23T04:35:31;100720.00;;;11.30
19282;BMP180;9774;52.034;5.342;2024-03-23T04:37:57;100722.00;;;11.30
19282;BMP180;9774;52.034;5.342;2024-03-23T04:40:26;100720.00;;;11.20
19282;BMP180;9774;52.034;5.342;2024-03-23T04:42:54;100724.00;;;11.20
19282;BMP180;9774;52.034;5.342;2024-03-23T04:45:21;100721.00;;;11.20
19282;BMP180;9774;52.034;5.342;2024-03-23T04:47:49;100712.00;;;11.10
19282;BMP180;9774;52.034;5.342;2024-03-23T04:50:16;100716.00;;;11.10
19282;BMP180;9774;52.034;5.342;2024-03-23T04:52:44;100722.00;;;11.10
19282;BMP180;9774;52.034;5.342;2024-03-23T04:55:10;100713.00;;;11.00
19282;BMP180;9774;52.034;5.342;2024-03-23T04:57:39;100712.00;;;11.00
19282;BMP180;9774;52.034;5.342;2024-03-23T05:00:08;100712.00;;;11.00
19282;BMP180;9774;52.034;5.342;2024-03-23T05:02:44;100709.00;;;10.90
19282;BMP180;9774;52.034;5.342;2024-03-23T05:05:12;100711.00;;;10.90
19282;BMP180;9774;52.034;5.342;2024-03-23T05:07:38;100709.00;;;10.90
19282;BMP180;9774;52.034;5.342;2024-03-23T05:10:07;100716.00;;;10.90
19282;BMP180;9774;52.034;5.342;2024-03-23T05:12:36;100716.00;;;10.80
19282;BMP180;9774;52.034;5.342;2024-03-23T05:15:06;100712.00;;;10.80
19282;BMP180;9774;52.034;5.342;2024-03-23T05:17:32;100714.00;;;10.80
19282;BMP180;9774;52.034;5.342;2024-03-23T05:19:59;100718.00;;;10.70
19282;BMP180;9774;52.034;5.342;2024-03-23T05:22:25;100716.00;;;10.70
19282;BMP180;9774;52.034;5.342;2024-03-23T05:24:53;100725.00;;;10.70
19282;BMP180;9774;52.034;5.342;2024-03-23T05:27:19;100722.00;;;10.70
19282;BMP180;9774;52.034;5.342;2024-03-23T05:29:46;100726.00;;;10.70
19282;BMP180;9774;52.034;5.342;2024-03-23T05:32:14;100724.00;;;10.70
19282;BMP180;9774;52.034;5.342;2024-03-23T05:34:41;100718.00;;;10.70
19282;BMP180;9774;52.034;5.342;2024-03-23T05:37:07;100719.00;;;10.70
19282;BMP180;9774;52.034;5.342;2024-03-23T05:39:34;100725.00;;;10.70
19282;BMP180;9774;52.034;5.342;2024-03-23T05:42:00;100734.00;;;10.70
19282;BMP180;9774;52.034;5.342;2024-03-23T05:44:28;100729.00;;;10.70
19282;BMP180;9774;52.034;5.342;2024-03-23T05:46:54;100732.00;;;10.80
19282;BMP180;9774;52.034;5.342;2024-03-23T05:49:22;100724.00;;;10.80
19282;BMP180;9774;52.034;5.342;2024-03-23T05:51:50;100725.00;;;10.90
19282;BMP180;9774;52.034;5.342;2024-03-23T05:54:17;100715.00;;;10.90
19282;BMP180;9774;52.034;5.342;2024-03-23T05:56:44;100709.00;;;11.00
19282;BMP180;9774;52.034;5.342;2024-03-23T05:59:10;100699.00;;;11.00
19282;BMP180;9774;52.034;5.342;2024-03-23T06:01:37;100715.00;;;11.00
19282;BMP180;9774;52.034;5.342;2024-03-23T06:04:04;100712.00;;;11.10
19282;BMP180;9774;52.034;5.342;2024-03-23T06:06:33;100710.00;;;11.00
19282;BMP180;9774;52.034;5.342;2024-03-23T06:08:59;100718.00;;;11.10
19282;BMP180;9774;52.034;5.342;2024-03-23T06:11:26;100715.00;;;11.10
19282;BMP180;9774;52.034;5.342;2024-03-23T06:13:53;100727.00;;;11.10
19282;BMP180;9774;52.034;5.342;2024-03-23T06:16:20;100725.00;;;11.20
19282;BMP180;9774;52.034;5.342;2024-03-23T06:18:49;100723.00;;;11.20
19282;BMP180;9774;52.034;5.342;2024-03-23T06:21:17;100725.00;;;11.20
19282;BMP180;9774;52.034;5.342;2024-03-23T06:23:47;100720.00;;;11.20
19282;BMP180;9774;52.034;5.342;2024-03-23T06:26:18;100715.00;;;11.20
19282;BMP180;9774;52.034;5.342;2024-03-23T06:28:46;100715.00;;;11.30
19282;BMP180;9774;52.034;5.342;2024-03-23T06:31:15;100710.00;;;11.30
19282;BMP180;9774;52.034;5.342;2024-03-23T06:33:43;100709.00;;;11.30
19282;BMP180;9774;52.034;5.342;2024-03-23T06:36:12;100706.00;;;11.40
19282;BMP180;9774;52.034;5.342;2024-03-23T06:38:38;100712.00;;;11.40
19282;BMP180;9774;52.034;5.342;2024-03-23T06:41:08;100703.00;;;11.40
19282;BMP180;9774;52.034;5.342;2024-03-23T06:43:34;100698.00;;;11.50
19282;BMP180;9774;52.034;5.342;2024-03-23T06:46:04;100698.00;;;11.60
19282;BMP180;9774;52.034;5.342;2024-03-23T06:48:30;100702.00;;;11.60
19282;BMP180;9774;52.034;5.342;2024-03-23T06:50:57;100702.00;;;11.60
19282;BMP180;9774;52.034;5.342;2024-03-23T06:53:24;100711.00;;;11.70
19282;BMP180;9774;52.034;5.342;2024-03-23T06:55:52;100707.00;;;11.70
19282;BMP180;9774;52.034;5.342;2024-03-23T06:58:20;100705.00;;;11.80
19282;BMP180;9774;52.034;5.342;2024-03-23T07:00:49;100717.00;;;11.80
19282;BMP180;9774;52.034;5.342;2024-03-23T07:03:16;100715.00;;;11.90
19282;BMP180;9774;52.034;5.342;2024-03-23T07:05:43;100707.00;;;12.00
19282;BMP180;9774;52.034;5.342;2024-03-23T07:08:09;100712.00;;;12.00
19282;BMP180;9774;52.034;5.342;2024-03-23T07:10:39;100712.00;;;12.00
19282;BMP180;9774;52.034;5.342;2024-03-23T07:13:05;100720.00;;;12.10
19282;BMP180;9774;52.034;5.342;2024-03-23T07:15:34;100713.00;;;12.20
19282;BMP180;9774;52.034;5.342;2024-03-23T07:18:00;100704.00;;;12.20
19282;BMP180;9774;52.034;5.342;2024-03-23T07:20:27;100717.00;;;12.30
19282;BMP180;9774;52.034;5.342;2024-03-23T07:22:55;100709.00;;;12.30
19282;BMP180;9774;52.034;5.342;2024-03-23T07:25:22;100713.00;;;12.30
19282;BMP180;9774;52.034;5.342;2024-03-23T07:27:49;100720.00;;;12.40
19282;BMP180;9774;52.034;5.342;2024-03-23T07:30:16;100721.00;;;12.40
19282;BMP180;9774;52.034;5.342;2024-03-23T07:32:45;100714.00;;;12.50
19282;BMP180;9774;52.034;5.342;2024-03-23T07:35:13;100712.00;;;12.60
19282;BMP180;9774;52.034;5.342;2024-03-23T07:37:39;100717.00;;;12.60
19282;BMP180;9774;52.034;5.342;2024-03-23T07:40:07;100711.00;;;12.70
19282;BMP180;9774;52.034;5.342;2024-03-23T07:42:34;100715.00;;;12.70
19282;BMP180;9774;52.034;5.342;2024-03-23T07:45:01;100720.00;;;12.80
19282;BMP180;9774;52.034;5.342;2024-03-23T07:47:27;100717.00;;;12.80
19282;BMP180;9774;52.034;5.342;2024-03-23T07:49:55;100718.00;;;12.90
19282;BMP180;9774;52.034;5.342;2024-03-23T07:52:21;100712.00;;;12.90
19282;BMP180;9774;52.034;5.342;2024-03-23T07:54:48;100718.00;;;13.00
19282;BMP180;9774;52.034;5.342;2024-03-23T07:57:14;100714.00;;;13.10
19282;BMP180;9774;52.034;5.342;2024-03-23T07:59:41;100714.00;;;13.20
19282;BMP180;9774;52.034;5.342;2024-03-23T08:02:07;100707.00;;;13.20
19282;BMP180;9774;52.034;5.342;2024-03-23T08:04:34;100716.00;;;13.30
19282;BMP180;9774;52.034;5.342;2024-03-23T08:07:02;100719.00;;;13.30
19282;BMP180;9774;52.034;5.342;2024-03-23T08:09:29;100718.00;;;13.30
19282;BMP180;9774;52.034;5.342;2024-03-23T08:11:55;100713.00;;;13.40
19282;BMP180;9774;52.034;5.342;2024-03-23T08:14:22;100707.00;;;13.40
19282;BMP180;9774;52.034;5.342;2024-03-23T08:16:48;100711.00;;;13.50
19282;BMP180;9774;52.034;5.342;2024-03-23T08:19:16;100706.00;;;13.50
19282;BMP180;9774;52.034;5.342;2024-03-23T08:21:43;100710.00;;;13.50
19282;BMP180;9774;52.034;5.342;2024-03-23T08:24:11;100706.00;;;13.60
19282;BMP180;9774;52.034;5.342;2024-03-23T08:26:37;100707.00;;;13.60
19282;BMP180;9774;52.034;5.342;2024-03-23T08:29:05;100725.00;;;13.60
19282;BMP180;9774;52.034;5.342;2024-03-23T08:31:31;100713.00;;;13.60
19282;BMP180;9774;52.034;5.342;2024-03-23T08:33:58;100710.00;;;13.60
19282;BMP180;9774;52.034;5.342;2024-03-23T08:36:24;100709.00;;;13.60
19282;BMP180;9774;52.034;5.342;2024-03-23T08:38:51;100712.00;;;13.60
19282;BMP180;9774;52.034;5.342;2024-03-23T08:41:21;100720.00;;;13.70
19282;BMP180;9774;52.034;5.342;2024-03-23T08:43:48;100714.00;;;13.70
19282;BMP180;9774;52.034;5.342;2024-03-23T08:46:16;100718.00;;;13.70
19282;BMP180;9774;52.034;5.342;2024-03-23T08:48:45;100716.00;;;13.80
19282;BMP180;9774;52.034;5.342;2024-03-23T08:51:12;100721.00;;;13.80
19282;BMP180;9774;52.034;5.342;2024-03-23T08:53:40;100715.00;;;13.90
19282;BMP180;9774;52.034;5.342;2024-03-23T08:56:07;100711.00;;;13.90
19282;BMP180;9774;52.034;5.342;2024-03-23T08:58:37;100711.00;;;14.00
19282;BMP180;9774;52.034;5.342;2024-03-23T09:01:07;100706.00;;;14.00
19282;BMP180;9774;52.034;5.342;2024-03-23T09:03:34;100698.00;;;14.20
19282;BMP180;9774;52.034;5.342;2024-03-23T09:06:01;100689.00;;;14.30
19282;BMP180;9774;52.034;5.342;2024-03-23T09:08:28;100687.00;;;14.40
19282;BMP180;9774;52.034;5.342;2024-03-23T09:10:55;100685.00;;;14.60
19282;BMP180;9774;52.034;5.342;2024-03-23T09:13:22;100689.00;;;14.70
19282;BMP180;9774;52.034;5.342;2024-03-23T09:15:50;100689.00;;;14.70
19282;BMP180;9774;52.034;5.342;2024-03-23T09:18:22;100687.00;;;14.80
19282;BMP180;9774;52.034;5.342;2024-03-23T09:20:48;100681.00;;;14.80
19282;BMP180;9774;52.034;5.342;2024-03-23T09:23:15;100685.00;;;14.80
19282;BMP180;9774;52.034;5.342;2024-03-23T09:25:41;100707.00;;;14.90
19282;BMP180;9774;52.034;5.342;2024-03-23T09:28:09;100707.00;;;14.80
19282;BMP180;9774;52.034;5.342;2024-03-23T09:30:36;100697.00;;;14.70
19282;BMP180;9774;52.034;5.342;2024-03-23T09:33:09;100687.00;;;14.70
19282;BMP180;9774;52.034;5.342;2024-03-23T09:35:37;100693.00;;;14.70
19282;BMP180;9774;52.034;5.342;2024-03-23T09:38:04;100692.00;;;14.70
19282;BMP180;9774;52.034;5.342;2024-03-23T09:40:31;100690.00;;;14.70
19282;BMP180;9774;52.034;5.342;2024-03-23T09:42:58;100687.00;;;14.90
19282;BMP180;9774;52.034;5.342;2024-03-23T09:45:28;100690.00;;;14.90
19282;BMP180;9774;52.034;5.342;2024-03-23T09:47:56;100690.00;;;15.00
19282;BMP180;9774;52.034;5.342;2024-03-23T09:50:23;100675.00;;;15.10
19282;BMP180;9774;52.034;5.342;2024-03-23T09:52:51;100686.00;;;15.10
19282;BMP180;9774;52.034;5.342;2024-03-23T09:55:17;100697.00;;;15.10
19282;BMP180;9774;52.034;5.342;2024-03-23T09:57:44;100686.00;;;15.10
19282;BMP180;9774;52.034;5.342;2024-03-23T10:00:13;100694.00;;;15.10
19282;BMP180;9774;52.034;5.342;2024-03-23T10:02:40;100690.00;;;15.20
19282;BMP180;9774;52.034;5.342;2024-03-23T10:05:20;100686.00;;;15.00
19282;BMP180;9774;52.034;5.342;2024-03-23T10:07:50;100686.00;;;15.10
19282;BMP180;9774;52.034;5.342;2024-03-23T10:10:17;100680.00;;;15.00
19282;BMP180;9774;52.034;5.342;2024-03-23T10:12:46;100684.00;;;15.00
19282;BMP180;9774;52.034;5.342;2024-03-23T10:15:19;100687.00;;;14.90
19282;BMP180;9774;52.034;5.342;2024-03-23T10:17:46;100686.00;;;15.00
19282;BMP180;9774;52.034;5.342;2024-03-23T10:20:13;100700.00;;;14.90
19282;BMP180;9774;52.034;5.342;2024-03-23T10:22:46;100685.00;;;14.90
19282;BMP180;9774;52.034;5.342;2024-03-23T10:25:14;100689.00;;;14.80
19282;BMP180;9774;52.034;5.342;2024-03-23T10:27:41;100686.00;;;14.80
19282;BMP180;9774;52.034;5.342;2024-03-23T10:30:10;100685.00;;;14.70
19282;BMP180;9774;52.034;5.342;2024-03-23T10:32:38;100681.00;;;14.80
19282;BMP180;9774;52.034;5.342;2024-03-23T10:35:15;100679.00;;;14.70
19282;BMP180;9774;52.034;5.342;2024-03-23T10:37:42;100681.00;;;14.80
19282;BMP180;9774;52.034;5.342;2024-03-23T10:40:13;100685.00;;;14.90
19282;BMP180;9774;52.034;5.342;2024-03-23T10:42:40;100685.00;;;15.00
19282;BMP180;9774;52.034;5.342;2024-03-23T10:45:07;100688.00;;;15.00
19282;BMP180;9774;52.034;5.342;2024-03-23T10:47:37;100713.00;;;15.00
19282;BMP180;9774;52.034;5.342;2024-03-23T10:50:04;100728.00;;;14.90
19282;BMP180;9774;52.034;5.342;2024-03-23T10:52:32;100721.00;;;14.70
19282;BMP180;9774;52.034;5.342;2024-03-23T10:55:01;100704.00;;;14.60
19282;BMP180;9774;52.034;5.342;2024-03-23T10:57:38;100700.00;;;14.50
19282;BMP180;9774;52.034;5.342;2024-03-23T11:00:08;100697.00;;;14.60
19282;BMP180;9774;52.034;5.342;2024-03-23T11:02:36;100689.00;;;14.70
19282;BMP180;9774;52.034;5.342;2024-03-23T11:05:28;100698.00;;;14.60
19282;BMP180;9774;52.034;5.342;2024-03-23T11:07:55;100707.00;;;14.70
19282;BMP180;9774;52.034;5.342;2024-03-23T11:10:26;100696.00;;;14.60
19282;BMP180;9774;52.034;5.342;2024-03-23T11:12:56;100705.00;;;14.50
19282;BMP180;9774;52.034;5.342;2024-03-23T11:15:23;100697.00;;;14.40
19282;BMP180;9774;52.034;5.342;2024-03-23T11:18:04;100692.00;;;14.30
19282;BMP180;9774;52.034;5.342;2024-03-23T11:20:35;100693.00;;;14.20
19282;BMP180;9774;52.034;5.342;2024-03-23T11:23:03;100692.00;;;14.20
19282;BMP180;9774;52.034;5.342;2024-03-23T11:25:30;100686.00;;;14.10
19282;BMP180;9774;52.034;5.342;2024-03-23T11:28:11;100681.00;;;13.90
19282;BMP180;9774;52.034;5.342;2024-03-23T11:30:38;100677.00;;;14.00
19282;BMP180;9774;52.034;5.342;2024-03-23T11:33:05;100677.00;;;13.90
19282;BMP180;9774;52.034;5.342;2024-03-23T11:35:33;100674.00;;;13.90
19282;BMP180;9774;52.034;5.342;2024-03-23T11:38:08;100684.00;;;13.80
19282;BMP180;9774;52.034;5.342;2024-03-23T11:40:36;100667.00;;;13.90
19282;BMP180;9774;52.034;5.342;2024-03-23T11:43:06;100672.00;;;14.10
19282;BMP180;9774;52.034;5.342;2024-03-23T11:45:37;100661.00;;;14.10
19282;BMP180;9774;52.034;5.342;2024-03-23T11:48:07;100671.00;;;14.30
19282;BMP180;9774;52.034;5.342;2024-03-23T11:50:37;100673.00;;;14.30
19282;BMP180;9774;52.034;5.342;2024-03-23T11:53:13;100674.00;;;14.40
19282;BMP180;9774;52.034;5.342;2024-03-23T11:55:45;100667.00;;;14.50
19282;BMP180;9774;52.034;5.342;2024-03-23T11:58:15;100662.00;;;14.60
19282;BMP180;9774;52.034;5.342;2024-03-23T12:00:48;100653.00;;;14.70
19282;BMP180;9774;52.034;5.342;2024-03-23T12:03:16;100656.00;;;14.80
19282;BMP180;9774;52.034;5.342;2024-03-23T12:05:49;100651.00;;;14.80
19282;BMP180;9774;52.034;5.342;2024-03-23T12:08:17;100656.00;;;14.80
19282;BMP180;9774;52.034;5.342;2024-03-23T12:10:48;100658.00;;;14.80
19282;BMP180;9774;52.034;5.342;2024-03-23T12:13:18;100652.00;;;14.80
19282;BMP180;9774;52.034;5.342;2024-03-23T12:15:47;100654.00;;;14.80
19282;BMP180;9774;52.034;5.342;2024-03-23T12:18:13;100659.00;;;14.90
19282;BMP180;9774;52.034;5.342;2024-03-23T12:20:41;100643.00;;;15.00
19282;BMP180;9774;52.034;5.342;2024-03-23T12:23:10;100641.00;;;15.00
19282;BMP180;9774;52.034;5.342;2024-03-23T12:25:39;100648.00;;;15.20
19282;BMP180;9774;52.034;5.342;2024-03-23T12:28:06;100634.00;;;15.30
19282;BMP180;9774;52.034;5.342;2024-03-23T12:30:38;100637.00;;;15.30
19282;BMP180;9774;52.034;5.342;2024-03-23T12:33:05;100633.00;;;15.40
19282;BMP180;9774;52.034;5.342;2024-03-23T12:35:32;100638.00;;;15.40
19282;BMP180;9774;52.034;5.342;2024-03-23T12:37:58;100642.00;;;15.50
19282;BMP180;9774;52.034;5.342;2024-03-23T12:40:25;100635.00;;;15.50
19282;BMP180;9774;52.034;5.342;2024-03-23T12:42:52;100651.00;;;15.50
19282;BMP180;9774;52.034;5.342;2024-03-23T12:45:19;100634.00;;;15.60
19282;BMP180;9774;52.034;5.342;2024-03-23T12:47:47;100633.00;;;15.60
19282;BMP180;9774;52.034;5.342;2024-03-23T12:50:14;100653.00;;;15.70
19282;BMP180;9774;52.034;5.342;2024-03-23T12:52:40;100629.00;;;15.70
19282;BMP180;9774;52.034;5.342;2024-03-23T12:55:08;100631.00;;;15.70
19282;BMP180;9774;52.034;5.342;2024-03-23T12:57:34;100638.00;;;15.70
19282;BMP180;9774;52.034;5.342;2024-03-23T13:00:02;100640.00;;;15.70
19282;BMP180;9774;52.034;5.342;2024-03-23T13:02:29;100634.00;;;15.60
19282;BMP180;9774;52.034;5.342;2024-03-23T13:04:58;100623.00;;;15.60
19282;BMP180;9774;52.034;5.342;2024-03-23T13:07:24;100633.00;;;15.60
19282;BMP180;9774;52.034;5.342;2024-03-23T13:09:52;100625.00;;;15.60
19282;BMP180;9774;52.034;5.342;2024-03-23T13:12:19;100623.00;;;15.60
19282;BMP180;9774;52.034;5.342;2024-03-23T13:14:46;100616.00;;;15.60
19282;BMP180;9774;52.034;5.342;2024-03-23T13:17:13;100610.00;;;15.60
19282;BMP180;9774;52.034;5.342;2024-03-23T13:19:40;100628.00;;;15.60
19282;BMP180;9774;52.034;5.342;2024-03-23T13:22:08;100651.00;;;15.60
19282;BMP180;9774;52.034;5.342;2024-03-23T13:24:37;100662.00;;;15.50
19282;BMP180;9774;52.034;5.342;2024-03-23T13:27:04;100662.00;;;15.40
19282;BMP180;9774;52.034;5.342;2024-03-23T13:29:33;100654.00;;;15.40
19282;BMP180;9774;52.034;5.342;2024-03-23T13:32:00;100648.00;;;15.40
19282;BMP180;9774;52.034;5.342;2024-03-23T13:34:27;100638.00;;;15.70
19282;BMP180;9774;52.034;5.342;2024-03-23T13:36:55;100657.00;;;16.30
19282;BMP180;9774;52.034;5.342;2024-03-23T13:39:25;100637.00;;;17.00
19282;BMP180;9774;52.034;5.342;2024-03-23T13:41:53;100632.00;;;17.60
19282;BMP180;9774;52.034;5.342;2024-03-23T13:44:21;100641.00;;;18.10
19282;BMP180;9774;52.034;5.342;2024-03-23T13:46:47;100639.00;;;18.80
19282;BMP180;9774;52.034;5.342;2024-03-23T13:49:26;100648.00;;;19.00
19282;BMP180;9774;52.034;5.342;2024-03-23T13:51:52;100647.00;;;18.80
19282;BMP180;9774;52.034;5.342;2024-03-23T13:54:20;100629.00;;;18.50
19282;BMP180;9774;52.034;5.342;2024-03-23T13:56:49;100638.00;;;18.20
19282;BMP180;9774;52.034;5.342;2024-03-23T13:59:16;100628.00;;;17.90
19282;BMP180;9774;52.034;5.342;2024-03-23T14:01:43;100631.00;;;17.60
19282;BMP180;9774;52.034;5.342;2024-03-23T14:04:11;100619.00;;;17.50
19282;BMP180;9774;52.034;5.342;2024-03-23T14:06:37;100615.00;;;17.80
19282;BMP180;9774;52.034;5.342;2024-03-23T14:09:05;100610.00;;;18.40
19282;BMP180;9774;52.034;5.342;2024-03-23T14:11:31;100609.00;;;19.10
19282;BMP180;9774;52.034;5.342;2024-03-23T14:13:59;100603.00;;;19.70
19282;BMP180;9774;52.034;5.342;2024-03-23T14:16:25;100600.00;;;20.50
19282;BMP180;9774;52.034;5.342;2024-03-23T14:18:53;100598.00;;;21.30
19282;BMP180;9774;52.034;5.342;2024-03-23T14:21:19;100598.00;;;21.70
19282;BMP180;9774;52.034;5.342;2024-03-23T14:23:47;100602.00;;;21.70
19282;BMP180;9774;52.034;5.342;2024-03-23T14:26:14;100598.00;;;21.70
19282;BMP180;9774;52.034;5.342;2024-03-23T14:28:40;100598.00;;;22.00
19282;BMP180;9774;52.034;5.342;2024-03-23T14:31:08;100600.00;;;22.00
19282;BMP180;9774;52.034;5.342;2024-03-23T14:33:36;100591.00;;;22.30
19282;BMP180;9774;52.034;5.342;2024-03-23T14:36:04;100596.00;;;22.20
19282;BMP180;9774;52.034;5.342;2024-03-23T14:38:30;100592.00;;;21.90
19282;BMP180;9774;52.034;5.342;2024-03-23T14:40:58;100586.00;;;21.50
19282;BMP180;9774;52.034;5.342;2024-03-23T14:43:25;100586.00;;;21.30
19282;BMP180;9774;52.034;5.342;2024-03-23T14:46:11;100580.00;;;21.50
19282;BMP180;9774;52.034;5.342;2024-03-23T14:48:39;100568.00;;;21.80
19282;BMP180;9774;52.034;5.342;2024-03-23T14:51:06;100568.00;;;22.40
19282;BMP180;9774;52.034;5.342;2024-03-23T14:53:35;100596.00;;;23.00
19282;BMP180;9774;52.034;5.342;2024-03-23T14:56:04;100580.00;;;23.50
19282;BMP180;9774;52.034;5.342;2024-03-23T14:58:31;100590.00;;;23.50
19282;BMP180;9774;52.034;5.342;2024-03-23T15:01:01;100591.00;;;23.20
19282;BMP180;9774;52.034;5.342;2024-03-23T15:03:29;100587.00;;;22.80